Estación Meteorológica Peña el Pijo (Robertgarden) [ 02/03/23 04:44:55 CET ]

Fecha Hora Presion(HPa) Temp (°C) Humedad % Rocio (°C) Viento ( m/s) Direccion Lluvia 1Hora(mm) Lluvia 24H(mm) LLuvia Total(mm)
2010-Oct-06 01:01:16 1007.400 7.6 82 4.7         161.61
2010-Oct-06 02:01:17 1006.600 7.1 84 4.6         161.61
2010-Oct-06 03:03:15 1006.300 6.8 85 4.5         161.61
2010-Oct-06 04:01:11 1006.100 6.4 86 4.2         161.61
2010-Oct-06 05:01:12 1005.600 6.1 87 4.1         161.61
2010-Oct-06 06:01:16 1005.500 5.9 88 4.1         161.61
2010-Oct-06 07:01:14 1005.700 5.9 89 4.2         161.61
2010-Oct-06 08:01:14 1005.900 5.8 89 4.1         161.61
2010-Oct-06 09:01:12 1005.900 6.1 90 4.6         161.61
2010-Oct-06 10:01:13 1006.100 13.1 82 10.1         161.61
2010-Oct-06 11:01:17 1006.100 19.0 59 10.8         161.61
2010-Oct-06 12:01:13 1006.300 23.0 44 10.0 1.7 NE     161.61
2010-Oct-06 13:01:14 1005.800 27.3 36 10.8         161.61
2010-Oct-06 14:01:18 1005.100 29.1 33 11.1         161.61
2010-Oct-06 15:01:13 1004.900 28.9 31 10.1         161.61
2010-Oct-06 16:01:12 1004.600 29.3 30 10.0         161.61
2010-Oct-06 17:01:16 1004.600 28.1 33 10.2         161.61
2010-Oct-06 18:01:11 1004.700 24.9 36 8.7         161.61
2010-Oct-06 19:01:14 1005.000 21.6 38 6.6         161.61
2010-Oct-06 20:01:14 1005.700 19.1 44 6.5         161.61
2010-Oct-06 21:01:14 1006.300 17.1 50 6.6         161.61
2010-Oct-06 22:01:11 1007.100 13.9 60 6.3         161.61
2010-Oct-06 23:01:17 1007.600 11.5 69 6.0         161.61

Temperatura Máxima:29°    Temperatura Mínima:
Presión Máxima:1007.600 Hpa    Presión Mínima:1004.600 Hpa


Volver